Time;durP1;ratioP1;P1;durP2;ratioP2;P2;SDS_P1;SDS_P2;PMS_P1;PMS_P2;Temp;Humidity;BMP_temperature;BMP_pressure;BME280_temperature;BME280_humidity;BME280_pressure;Samples;Min_cycle;Max_cycle;Signal;HPM_P1;HPM_P2
2023/07/24 00:00:21;;;;;;;4.88;4.38;;;18.30;99.90;;;;;;5028635;28;20427;-70
2023/07/24 00:02:48;;;;;;;4.15;3.70;;;18.30;99.90;;;;;;5034552;28;20443;-68
2023/07/24 00:05:14;;;;;;;3.72;3.40;;;18.20;99.90;;;;;;5041958;28;20899;-68
2023/07/24 00:07:41;;;;;;;3.50;3.20;;;18.20;99.90;;;;;;5041738;28;20415;-68
2023/07/24 00:10:08;;;;;;;4.32;3.50;;;18.20;99.90;;;;;;5031832;28;20526;-69
2023/07/24 00:12:36;;;;;;;4.10;3.70;;;18.20;99.90;;;;;;5038335;28;20415;-69
2023/07/24 00:15:04;;;;;;;3.92;3.05;;;18.20;99.90;;;;;;5041672;28;20430;-67
2023/07/24 00:17:30;;;;;;;3.40;3.10;;;18.10;99.90;;;;;;5037150;28;20421;-70
2023/07/24 00:19:57;;;;;;;3.83;3.00;;;18.10;99.90;;;;;;5036361;28;20825;-68
2023/07/24 00:22:24;;;;;;;3.40;3.10;;;18.10;99.90;;;;;;5042914;28;20417;-70
2023/07/24 00:24:50;;;;;;;3.78;3.47;;;18.10;99.90;;;;;;5030740;28;20937;-69
2023/07/24 00:27:17;;;;;;;3.70;3.10;;;18.10;99.90;;;;;;5035456;28;20444;-69
2023/07/24 00:29:45;;;;;;;4.40;3.60;;;18.10;99.90;;;;;;5040322;28;20414;-69
2023/07/24 00:32:12;;;;;;;3.35;2.90;;;18.10;99.90;;;;;;5045378;28;20413;-69
2023/07/24 00:34:39;;;;;;;3.45;3.15;;;18.10;99.90;;;;;;5038188;28;20423;-70
2023/07/24 00:37:06;;;;;;;3.70;2.90;;;18.10;99.90;;;;;;5039490;28;20424;-69
2023/07/24 00:39:33;;;;;;;3.38;2.80;;;18.10;99.90;;;;;;5038409;28;20407;-69
2023/07/24 00:42:00;;;;;;;3.80;3.20;;;18.10;99.90;;;;;;5036455;28;20448;-70
2023/07/24 00:44:26;;;;;;;3.20;2.85;;;18.10;99.90;;;;;;5036609;28;20419;-70
2023/07/24 00:46:55;;;;;;;4.00;2.60;;;18.10;99.90;;;;;;5038047;28;20433;-70
2023/07/24 00:49:22;;;;;;;4.57;2.88;;;18.10;99.90;;;;;;5027855;28;20790;-69
2023/07/24 00:51:49;;;;;;;3.30;3.00;;;18.10;99.90;;;;;;5036735;28;21088;-69
2023/07/24 00:54:17;;;;;;;3.28;2.97;;;18.10;99.90;;;;;;5038258;28;20433;-69
2023/07/24 00:56:45;;;;;;;3.20;2.90;;;18.10;99.90;;;;;;5029594;28;20434;-70
2023/07/24 00:59:12;;;;;;;3.35;2.70;;;18.00;99.90;;;;;;5035847;28;20890;-69
2023/07/24 01:01:42;;;;;;;3.40;2.95;;;18.00;99.90;;;;;;5043336;28;20429;-71
2023/07/24 01:04:10;;;;;;;3.40;3.10;;;18.00;99.90;;;;;;5030643;28;20473;-70
2023/07/24 01:06:37;;;;;;;4.40;3.10;;;18.00;99.90;;;;;;5029589;28;20446;-70
2023/07/24 01:09:04;;;;;;;3.83;3.17;;;18.00;99.90;;;;;;5037613;28;20441;-70
2023/07/24 01:11:36;;;;;;;4.30;3.00;;;17.90;99.90;;;;;;5034604;28;20426;-69
2023/07/24 01:14:10;;;;;;;3.95;3.45;;;17.90;99.90;;;;;;5031904;28;20435;-70
2023/07/24 01:16:38;;;;;;;4.83;3.33;;;17.90;99.90;;;;;;5040860;28;20413;-68
2023/07/24 01:19:21;;;;;;;3.60;3.30;;;17.80;99.90;;;;;;5048057;28;20428;-68
2023/07/24 01:22:02;;;;;;;3.50;3.10;;;17.80;99.90;;;;;;5034777;28;20936;-68
2023/07/24 01:24:34;;;;;;;3.90;3.42;;;17.80;99.90;;;;;;5039627;28;20462;-68
2023/07/24 01:27:02;;;;;;;3.72;2.90;;;17.80;99.90;;;;;;5029459;28;20410;-68
2023/07/24 01:29:29;;;;;;;5.05;3.35;;;17.80;99.90;;;;;;5044357;28;20417;-69
2023/07/24 01:31:55;;;;;;;3.37;3.07;;;17.80;99.90;;;;;;5053428;23;20814;-74
2023/07/24 01:34:22;;;;;;;3.73;3.43;;;17.70;99.90;;;;;;5021166;28;20434;-74
2023/07/24 01:36:50;;;;;;;4.30;3.40;;;17.70;99.90;;;;;;5013514;28;20424;-75
2023/07/24 01:39:19;;;;;;;4.07;3.67;;;17.70;99.90;;;;;;5023975;28;20436;-75
2023/07/24 01:41:46;;;;;;;4.00;3.60;;;17.70;99.90;;;;;;5021699;28;20432;-76
2023/07/24 01:44:14;;;;;;;3.70;3.40;;;17.70;99.90;;;;;;5016082;28;20427;-75
2023/07/24 01:46:40;;;;;;;3.73;3.37;;;17.70;99.90;;;;;;5012036;28;20433;-75
2023/07/24 01:49:07;;;;;;;3.87;3.50;;;17.70;99.90;;;;;;5021431;28;20520;-74
2023/07/24 01:51:34;;;;;;;3.70;3.40;;;17.70;99.90;;;;;;5027379;28;20423;-74
2023/07/24 01:54:01;;;;;;;4.15;3.72;;;17.80;99.90;;;;;;5022761;28;20921;-74
2023/07/24 01:56:27;;;;;;;4.18;3.78;;;17.80;99.90;;;;;;5011330;28;20413;-74
2023/07/24 01:58:54;;;;;;;4.10;3.70;;;17.80;99.90;;;;;;5019386;28;20911;-74
2023/07/24 02:01:22;;;;;;;3.60;3.30;;;17.80;99.90;;;;;;5023514;28;20443;-74
2023/07/24 02:03:49;;;;;;;3.60;3.30;;;17.90;99.90;;;;;;5019343;28;20421;-75
2023/07/24 02:06:15;;;;;;;3.40;3.10;;;17.90;99.90;;;;;;5016466;28;20770;-75
2023/07/24 02:08:48;;;;;;;4.07;3.20;;;17.90;99.90;;;;;;5012353;28;20420;-75
2023/07/24 02:11:15;;;;;;;3.40;3.07;;;18.00;99.90;;;;;;5018821;28;21009;-75
2023/07/24 02:13:44;;;;;;;4.17;3.10;;;18.00;99.90;;;;;;5024884;28;20412;-75
2023/07/24 02:16:11;;;;;;;5.28;3.70;;;18.00;99.90;;;;;;5011001;28;20500;-75
2023/07/24 02:18:39;;;;;;;3.70;3.40;;;18.00;99.90;;;;;;5011179;28;20421;-77
2023/07/24 02:21:06;;;;;;;3.80;3.43;;;18.10;99.90;;;;;;5022596;28;20997;-74
2023/07/24 02:23:33;;;;;;;4.60;3.50;;;18.00;99.90;;;;;;5017997;28;20416;-74
2023/07/24 02:26:00;;;;;;;5.22;3.58;;;18.00;99.90;;;;;;5013795;28;20808;-74
2023/07/24 02:28:26;;;;;;;4.43;3.80;;;18.00;99.90;;;;;;5019877;28;20420;-76
2023/07/24 02:30:55;;;;;;;4.00;3.60;;;17.90;99.90;;;;;;5013661;28;20426;-74
2023/07/24 02:33:22;;;;;;;6.30;3.80;;;17.90;99.90;;;;;;5020703;28;20752;-76
2023/07/24 02:35:53;;;;;;;4.55;3.65;;;17.80;99.90;;;;;;5025737;28;20424;-74
2023/07/24 02:38:20;;;;;;;4.78;3.63;;;17.80;99.90;;;;;;5018080;28;20411;-73
2023/07/24 02:40:46;;;;;;;4.68;3.60;;;17.70;99.90;;;;;;5018056;28;20941;-74
2023/07/24 02:43:13;;;;;;;6.35;4.30;;;17.70;99.90;;;;;;5017791;28;20803;-75
2023/07/24 02:45:40;;;;;;;4.50;3.80;;;17.70;99.90;;;;;;5011864;28;20425;-74
2023/07/24 02:48:07;;;;;;;5.00;4.03;;;17.70;99.90;;;;;;5010517;28;20424;-74
2023/07/24 02:50:34;;;;;;;4.43;3.90;;;17.60;99.90;;;;;;5021103;28;21045;-74
2023/07/24 02:53:02;;;;;;;5.38;4.38;;;17.60;99.90;;;;;;5015674;28;20459;-75
2023/07/24 02:55:29;;;;;;;4.95;3.85;;;17.60;99.90;;;;;;5009218;28;20433;-75
2023/07/24 02:57:56;;;;;;;5.18;3.85;;;17.60;99.90;;;;;;5006045;28;20424;-75
2023/07/24 03:00:22;;;;;;;5.13;3.80;;;17.60;99.90;;;;;;5020877;28;20423;-75
2023/07/24 03:02:49;;;;;;;5.53;4.30;;;17.60;99.90;;;;;;5018266;28;20436;-75
2023/07/24 03:05:16;;;;;;;5.97;4.20;;;17.60;99.90;;;;;;5027960;28;20423;-74
2023/07/24 03:07:43;;;;;;;6.28;4.10;;;17.70;99.90;;;;;;5034196;28;20421;-75
2023/07/24 03:10:11;;;;;;;4.60;4.15;;;17.60;99.90;;;;;;5034210;28;20442;-74
2023/07/24 03:12:38;;;;;;;5.30;4.13;;;17.70;99.90;;;;;;5028697;28;20811;-74
2023/07/24 03:15:05;;;;;;;5.00;4.20;;;17.70;99.90;;;;;;5019359;28;20480;-74
2023/07/24 03:17:32;;;;;;;6.15;4.30;;;17.70;99.90;;;;;;5025069;28;20415;-74
2023/07/24 03:19:59;;;;;;;4.93;4.00;;;17.70;99.90;;;;;;5024905;28;20415;-74
2023/07/24 03:22:26;;;;;;;4.82;4.32;;;17.70;99.90;;;;;;5024230;28;20438;-74
2023/07/24 03:24:53;;;;;;;5.85;4.40;;;17.70;99.90;;;;;;5013717;28;20420;-74
2023/07/24 03:27:21;;;;;;;4.85;4.22;;;17.70;99.90;;;;;;5008122;28;20432;-75
2023/07/24 03:29:48;;;;;;;5.13;4.55;;;17.70;99.90;;;;;;5019051;28;20423;-74
2023/07/24 03:32:15;;;;;;;5.20;4.65;;;17.70;99.90;;;;;;5024125;28;20422;-74
2023/07/24 03:34:41;;;;;;;5.00;4.50;;;17.70;99.90;;;;;;5019106;28;20545;-74
2023/07/24 03:37:08;;;;;;;4.93;4.43;;;17.70;99.90;;;;;;5016012;28;20413;-74
2023/07/24 03:39:35;;;;;;;4.97;4.47;;;17.70;99.90;;;;;;5017645;28;20428;-73
2023/07/24 03:42:02;;;;;;;5.80;4.93;;;17.60;99.90;;;;;;5012443;28;20813;-75
2023/07/24 03:44:30;;;;;;;5.20;4.40;;;17.60;99.90;;;;;;5023508;28;20888;-75
2023/07/24 03:46:57;;;;;;;4.88;4.30;;;17.50;99.90;;;;;;5006298;28;20426;-74
2023/07/24 03:49:24;;;;;;;4.80;4.30;;;17.50;99.90;;;;;;5013674;28;20427;-74
2023/07/24 03:51:49;;;;;;;5.28;4.60;;;17.60;99.90;;;;;;5019116;28;20448;-74
2023/07/24 03:54:16;;;;;;;4.85;4.32;;;17.50;99.90;;;;;;5019170;28;20776;-74
2023/07/24 03:56:43;;;;;;;4.70;4.20;;;17.50;99.90;;;;;;5017498;28;20444;-74
2023/07/24 03:59:10;;;;;;;6.57;4.28;;;17.60;99.90;;;;;;5017726;28;20413;-74
2023/07/24 04:01:38;;;;;;;4.90;4.37;;;17.50;99.90;;;;;;5009956;28;20927;-73
2023/07/24 04:04:05;;;;;;;4.45;4.03;;;17.50;99.90;;;;;;5018184;28;20423;-73
2023/07/24 04:06:32;;;;;;;4.90;4.20;;;17.60;99.90;;;;;;5017155;28;20417;-75
2023/07/24 04:08:58;;;;;;;4.30;3.90;;;17.60;99.90;;;;;;5020945;28;20418;-74
2023/07/24 04:11:25;;;;;;;5.18;3.80;;;17.60;99.90;;;;;;5016274;28;20433;-73
2023/07/24 04:13:52;;;;;;;4.30;3.70;;;17.60;99.90;;;;;;5011962;28;20429;-74
2023/07/24 04:16:19;;;;;;;4.20;3.70;;;17.60;99.90;;;;;;5021216;28;20430;-74
2023/07/24 04:18:47;;;;;;;4.28;3.80;;;17.60;99.90;;;;;;5017967;28;20416;-74
2023/07/24 04:21:13;;;;;;;5.10;3.87;;;17.70;99.90;;;;;;5009175;28;20663;-74
2023/07/24 04:23:40;;;;;;;4.03;3.50;;;17.70;99.90;;;;;;5013237;28;20427;-74
2023/07/24 04:26:07;;;;;;;4.85;4.00;;;17.70;99.90;;;;;;5018877;28;20418;-74
2023/07/24 04:28:34;;;;;;;4.78;3.40;;;17.70;99.90;;;;;;5018497;28;20700;-74
2023/07/24 04:31:01;;;;;;;4.53;3.60;;;17.70;99.90;;;;;;5015860;28;20421;-74
2023/07/24 04:33:28;;;;;;;4.83;3.83;;;17.70;99.90;;;;;;5014451;28;20698;-74
2023/07/24 04:35:56;;;;;;;3.95;3.50;;;17.70;99.90;;;;;;5025124;28;20427;-74
2023/07/24 04:38:23;;;;;;;4.90;4.10;;;17.80;99.90;;;;;;5023253;28;20767;-74
2023/07/24 04:40:49;;;;;;;4.25;3.85;;;17.80;99.90;;;;;;5016942;28;20426;-74
2023/07/24 04:43:16;;;;;;;4.90;4.05;;;17.80;99.90;;;;;;5012938;28;20432;-74
2023/07/24 04:45:43;;;;;;;4.90;4.00;;;17.80;99.90;;;;;;5024210;28;20433;-76
2023/07/24 04:48:10;;;;;;;3.60;3.30;;;17.80;99.90;;;;;;5025379;28;20979;-73
2023/07/24 04:50:36;;;;;;;5.05;4.10;;;17.80;99.90;;;;;;5020007;28;20443;-73
2023/07/24 04:53:04;;;;;;;4.80;3.83;;;17.90;99.90;;;;;;5020177;28;21031;-73
2023/07/24 04:55:31;;;;;;;3.97;3.58;;;17.90;99.90;;;;;;5027934;28;20411;-73
2023/07/24 04:57:58;;;;;;;4.40;3.60;;;17.90;99.90;;;;;;5007883;28;20431;-74
2023/07/24 05:00:26;;;;;;;4.15;3.60;;;17.90;99.90;;;;;;5017030;28;20435;-72
2023/07/24 05:02:53;;;;;;;4.45;4.00;;;18.00;99.90;;;;;;5019070;28;20448;-75
2023/07/24 05:05:19;;;;;;;4.10;3.40;;;18.00;99.90;;;;;;5018994;28;20806;-71
2023/07/24 05:07:46;;;;;;;4.68;3.88;;;18.00;99.90;;;;;;5015869;28;20453;-73
2023/07/24 05:10:15;;;;;;;4.20;3.80;;;18.10;99.90;;;;;;5004925;28;20433;-72
2023/07/24 05:12:42;;;;;;;4.80;4.00;;;18.10;99.90;;;;;;5005049;28;20444;-72
2023/07/24 05:15:10;;;;;;;4.72;3.88;;;18.10;99.90;;;;;;5006929;28;20456;-68
2023/07/24 05:17:36;;;;;;;4.40;4.00;;;18.20;99.90;;;;;;5021822;28;20561;-68
2023/07/24 05:20:03;;;;;;;4.72;3.90;;;18.20;99.90;;;;;;5014020;28;20436;-70
2023/07/24 05:22:30;;;;;;;5.38;4.22;;;18.30;99.90;;;;;;5028611;28;20932;-68
2023/07/24 05:24:57;;;;;;;4.47;3.50;;;18.40;99.90;;;;;;5025797;28;20424;-69
2023/07/24 05:27:25;;;;;;;6.50;3.77;;;18.40;99.90;;;;;;5015821;28;20930;-69
2023/07/24 05:29:53;;;;;;;4.50;3.55;;;18.50;99.90;;;;;;5016612;28;20427;-68
2023/07/24 05:32:19;;;;;;;5.78;4.10;;;18.60;99.90;;;;;;5026147;28;20436;-69
2023/07/24 05:34:46;;;;;;;5.43;3.70;;;18.70;99.90;;;;;;5019182;28;20439;-70
2023/07/24 05:37:13;;;;;;;5.15;3.58;;;18.70;99.90;;;;;;5014475;28;20444;-69
2023/07/24 05:39:39;;;;;;;4.70;3.65;;;18.80;99.90;;;;;;5014769;28;20914;-69
2023/07/24 05:42:06;;;;;;;4.38;3.45;;;18.80;99.90;;;;;;5021150;28;20432;-69
2023/07/24 05:44:36;;;;;;;5.85;3.80;;;18.80;99.90;;;;;;5017405;28;20930;-70
2023/07/24 05:47:04;;;;;;;4.30;3.90;;;18.80;99.90;;;;;;5014834;28;20428;-69
2023/07/24 05:49:30;;;;;;;5.35;3.60;;;18.90;99.90;;;;;;5013002;28;20432;-69
2023/07/24 05:51:57;;;;;;;5.13;3.70;;;19.00;99.90;;;;;;5022077;28;20424;-69
2023/07/24 05:54:24;;;;;;;5.70;4.07;;;19.00;99.40;;;;;;5017278;28;20953;-68
2023/07/24 05:56:53;;;;;;;5.78;4.00;;;19.10;99.30;;;;;;5015250;28;20437;-68
2023/07/24 05:59:20;;;;;;;4.70;3.88;;;19.20;99.30;;;;;;5015491;28;20919;-70
2023/07/24 06:01:48;;;;;;;4.63;3.80;;;19.20;98.60;;;;;;5018180;28;20494;-69
2023/07/24 06:04:14;;;;;;;4.70;4.13;;;19.20;99.40;;;;;;5020791;28;20896;-69
2023/07/24 06:06:41;;;;;;;5.47;3.90;;;19.20;99.10;;;;;;5013525;28;20792;-70
2023/07/24 06:09:08;;;;;;;4.45;3.47;;;19.30;99.80;;;;;;5016343;28;20444;-70
2023/07/24 06:11:34;;;;;;;4.70;3.70;;;19.40;99.20;;;;;;5016470;28;20551;-70
2023/07/24 06:14:01;;;;;;;4.75;3.67;;;19.50;99.40;;;;;;5010305;28;20432;-70
2023/07/24 06:16:28;;;;;;;5.65;4.00;;;19.60;97.70;;;;;;5022701;28;20435;-70
2023/07/24 06:18:56;;;;;;;4.32;3.67;;;19.70;97.40;;;;;;5022382;28;20427;-70
2023/07/24 06:21:23;;;;;;;4.10;3.50;;;19.70;96.90;;;;;;5011414;28;20428;-67
2023/07/24 06:23:49;;;;;;;4.95;4.10;;;19.70;95.80;;;;;;4999940;28;20438;-67
2023/07/24 06:26:16;;;;;;;4.55;3.80;;;19.70;95.90;;;;;;4994640;28;20445;-67
2023/07/24 06:28:44;;;;;;;4.17;3.77;;;19.70;96.40;;;;;;4998562;28;20998;-68
2023/07/24 06:31:11;;;;;;;4.20;3.70;;;19.80;95.70;;;;;;5005896;28;20943;-67
2023/07/24 06:33:37;;;;;;;5.32;4.30;;;19.80;94.90;;;;;;5008217;28;20492;-65
2023/07/24 06:36:10;;;;;;;6.20;4.50;;;19.80;95.10;;;;;;5025043;28;20910;-67
2023/07/24 06:38:37;;;;;;;6.30;3.80;;;19.80;95.30;;;;;;5009452;28;20464;-67
2023/07/24 06:41:03;;;;;;;5.15;3.38;;;19.80;94.70;;;;;;5009492;28;20437;-66
2023/07/24 06:43:30;;;;;;;4.03;3.63;;;19.80;95.00;;;;;;5010121;28;20485;-67
2023/07/24 06:45:57;;;;;;;3.88;3.47;;;19.80;94.50;;;;;;5012850;28;20438;-67
2023/07/24 06:48:23;;;;;;;3.90;3.50;;;19.80;94.50;;;;;;5018117;28;20423;-67
2023/07/24 06:50:50;;;;;;;4.20;3.60;;;19.80;94.80;;;;;;5012422;28;20412;-67
2023/07/24 06:53:18;;;;;;;4.80;3.80;;;19.80;94.50;;;;;;5024323;28;20471;-67
2023/07/24 06:55:45;;;;;;;4.97;3.70;;;19.80;95.10;;;;;;5003153;28;20447;-67
2023/07/24 06:58:11;;;;;;;4.78;3.65;;;19.90;94.50;;;;;;4998951;28;20441;-65
2023/07/24 07:00:38;;;;;;;4.65;3.50;;;19.90;95.20;;;;;;5010001;28;20428;-68
2023/07/24 07:03:05;;;;;;;3.90;3.00;;;20.00;94.00;;;;;;5016602;28;20446;-74
2023/07/24 07:05:33;;;;;;;5.40;3.35;;;20.00;93.80;;;;;;4999723;28;21057;-72
2023/07/24 07:07:59;;;;;;;3.58;3.13;;;20.10;93.70;;;;;;5014956;28;20432;-72
2023/07/24 07:10:28;;;;;;;3.70;3.30;;;20.20;92.50;;;;;;5009604;28;20785;-74
2023/07/24 07:12:54;;;;;;;4.40;3.38;;;20.30;92.50;;;;;;5008447;28;20444;-73
2023/07/24 07:15:21;;;;;;;4.68;3.03;;;20.40;91.70;;;;;;5011856;28;20443;-72
2023/07/24 07:17:48;;;;;;;5.65;2.92;;;20.40;91.00;;;;;;5018206;28;20764;-72
2023/07/24 07:20:15;;;;;;;3.83;2.60;;;20.40;90.90;;;;;;5010374;28;20416;-73
2023/07/24 07:22:42;;;;;;;2.88;2.60;;;20.40;90.90;;;;;;5020780;28;20431;-73
2023/07/24 07:25:09;;;;;;;4.85;3.05;;;20.40;90.40;;;;;;5014892;28;20520;-73
2023/07/24 07:27:37;;;;;;;3.60;2.78;;;20.40;90.50;;;;;;5012447;28;20436;-73
2023/07/24 07:30:04;;;;;;;3.03;2.50;;;20.40;89.60;;;;;;5004597;28;20436;-72
2023/07/24 07:32:31;;;;;;;4.05;2.78;;;20.30;90.00;;;;;;5038963;23;20431;-70
2023/07/24 07:34:58;;;;;;;3.03;2.72;;;20.30;90.00;;;;;;5009843;28;20974;-68
2023/07/24 07:37:25;;;;;;;3.70;2.90;;;20.30;89.70;;;;;;4998579;28;20443;-68
2023/07/24 07:39:51;;;;;;;3.00;2.50;;;20.30;90.10;;;;;;5001901;28;20511;-68
2023/07/24 07:42:18;;;;;;;3.47;2.70;;;20.20;90.50;;;;;;5002854;28;20510;-68
2023/07/24 07:44:46;;;;;;;3.70;3.00;;;20.20;90.10;;;;;;5006237;28;20667;-68
2023/07/24 07:47:13;;;;;;;3.17;2.70;;;20.20;90.20;;;;;;5009194;28;20436;-70
2023/07/24 07:49:41;;;;;;;4.60;2.80;;;20.20;90.60;;;;;;4990353;28;20455;-68
2023/07/24 07:52:08;;;;;;;3.30;3.00;;;20.30;90.20;;;;;;4994424;28;20531;-70
2023/07/24 07:54:35;;;;;;;3.57;2.97;;;20.40;90.40;;;;;;5002055;28;20507;-70
2023/07/24 07:57:01;;;;;;;3.17;2.78;;;20.50;90.30;;;;;;4996012;28;20742;-69
2023/07/24 07:59:28;;;;;;;3.22;2.75;;;20.70;89.20;;;;;;5010954;28;20432;-69
2023/07/24 08:01:56;;;;;;;3.22;2.78;;;20.70;88.60;;;;;;5016198;28;20897;-70
2023/07/24 08:04:23;;;;;;;4.28;2.75;;;20.70;88.50;;;;;;5004949;28;20435;-70
2023/07/24 08:06:50;;;;;;;3.38;3.08;;;20.80;88.90;;;;;;5010267;28;20964;-69
2023/07/24 08:09:17;;;;;;;3.30;3.00;;;20.80;90.10;;;;;;5001458;28;20439;-70
2023/07/24 08:11:44;;;;;;;4.05;2.88;;;20.80;90.00;;;;;;5007102;28;20937;-69
2023/07/24 08:14:10;;;;;;;3.10;2.78;;;21.00;90.10;;;;;;5004884;28;20434;-70
2023/07/24 08:16:37;;;;;;;3.47;2.80;;;21.20;89.80;;;;;;5001731;28;20440;-70
2023/07/24 08:19:05;;;;;;;4.38;3.38;;;21.30;88.50;;;;;;5020099;28;20507;-69
2023/07/24 08:21:32;;;;;;;3.85;3.30;;;21.30;88.20;;;;;;5017149;28;20430;-69
2023/07/24 08:23:59;;;;;;;3.40;3.10;;;21.40;88.10;;;;;;5003686;28;20431;-70
2023/07/24 08:26:26;;;;;;;3.40;3.10;;;21.40;87.40;;;;;;5005405;28;20467;-69
2023/07/24 08:28:53;;;;;;;3.10;2.70;;;21.40;85.60;;;;;;5005760;28;20444;-69
2023/07/24 08:31:20;;;;;;;4.05;3.38;;;21.30;86.30;;;;;;5019849;28;20471;-69
2023/07/24 08:33:47;;;;;;;4.00;2.97;;;21.30;85.90;;;;;;4996665;28;20888;-69
2023/07/24 08:36:15;;;;;;;3.90;3.30;;;21.20;85.50;;;;;;5006509;28;20738;-69
2023/07/24 08:38:43;;;;;;;4.13;2.87;;;21.10;85.30;;;;;;5012495;28;20460;-68
2023/07/24 08:41:11;;;;;;;3.30;3.00;;;21.10;84.90;;;;;;5015138;28;20476;-70
2023/07/24 08:43:41;;;;;;;3.13;2.83;;;21.20;84.20;;;;;;5005080;28;20462;-69
2023/07/24 08:46:08;;;;;;;4.40;3.10;;;21.30;81.70;;;;;;5005920;28;20447;-70
2023/07/24 08:48:37;;;;;;;4.10;2.80;;;21.30;81.70;;;;;;5005876;28;20427;-70
2023/07/24 08:51:04;;;;;;;3.88;3.30;;;21.60;82.00;;;;;;5008097;28;20538;-69
2023/07/24 08:53:33;;;;;;;3.92;2.95;;;21.90;79.70;;;;;;5010436;28;20432;-70
2023/07/24 08:56:01;;;;;;;3.83;3.05;;;22.00;79.70;;;;;;5010749;28;20431;-69
2023/07/24 08:58:28;;;;;;;3.65;2.72;;;22.30;79.60;;;;;;5006168;28;20449;-70
2023/07/24 09:00:54;;;;;;;3.40;3.10;;;22.40;79.00;;;;;;5006338;28;20441;-70
2023/07/24 09:03:21;;;;;;;2.90;2.58;;;22.60;76.70;;;;;;5009528;28;20537;-69
2023/07/24 09:05:48;;;;;;;3.35;3.05;;;22.50;75.80;;;;;;5006391;28;20432;-69
2023/07/24 09:08:15;;;;;;;3.30;2.60;;;22.50;74.70;;;;;;5000099;28;20436;-69
2023/07/24 09:10:43;;;;;;;4.05;3.10;;;22.50;76.00;;;;;;5005112;28;20455;-70
2023/07/24 09:13:13;;;;;;;3.17;2.88;;;22.60;75.30;;;;;;5002637;28;20962;-69
2023/07/24 09:15:43;;;;;;;4.10;2.88;;;22.60;73.70;;;;;;5002440;28;20451;-69
2023/07/24 09:18:10;;;;;;;3.63;2.80;;;22.50;73.70;;;;;;5009687;28;20421;-69
2023/07/24 09:20:41;;;;;;;2.90;2.60;;;22.40;73.80;;;;;;5005330;28;20932;-68
2023/07/24 09:23:09;;;;;;;3.33;2.53;;;22.40;74.40;;;;;;4997419;28;21033;-69
2023/07/24 09:25:36;;;;;;;2.90;2.60;;;22.40;74.50;;;;;;5006103;28;20908;-70
2023/07/24 09:28:11;;;;;;;3.05;2.40;;;22.40;73.10;;;;;;5006980;28;20554;-69
2023/07/24 09:30:38;;;;;;;4.20;2.80;;;22.30;72.80;;;;;;5005232;28;20527;-69
2023/07/24 09:33:05;;;;;;;3.20;2.70;;;22.20;74.50;;;;;;5007793;28;20436;-69
2023/07/24 09:35:32;;;;;;;2.25;2.05;;;22.20;73.60;;;;;;5007004;28;20428;-69
2023/07/24 09:38:07;;;;;;;2.80;2.40;;;22.10;73.50;;;;;;5012286;28;20792;-70
2023/07/24 09:40:42;;;;;;;2.90;2.50;;;22.10;73.90;;;;;;4994185;28;20551;-70
2023/07/24 09:43:20;;;;;;;3.25;2.40;;;22.00;73.40;;;;;;5008338;28;20426;-70
2023/07/24 09:45:48;;;;;;;3.45;2.53;;;22.00;74.20;;;;;;4998644;28;20434;-70
2023/07/24 09:48:16;;;;;;;2.95;2.65;;;21.90;75.10;;;;;;5014644;28;20442;-70
2023/07/24 09:50:46;;;;;;;3.88;2.35;;;21.90;73.70;;;;;;5009070;28;20460;-70
2023/07/24 09:53:18;;;;;;;2.80;2.30;;;22.00;73.40;;;;;;5011400;28;20453;-70
2023/07/24 09:55:50;;;;;;;3.40;2.30;;;22.00;73.30;;;;;;5004269;28;20436;-70
2023/07/24 09:58:19;;;;;;;2.72;2.30;;;22.10;72.80;;;;;;5014473;28;21066;-70
2023/07/24 10:00:46;;;;;;;2.65;2.30;;;22.30;71.80;;;;;;5004799;28;20457;-70
2023/07/24 10:03:15;;;;;;;3.05;2.33;;;22.30;71.80;;;;;;5019046;28;20512;-70
2023/07/24 10:05:42;;;;;;;2.83;2.50;;;22.40;70.40;;;;;;5004959;28;20458;-69
2023/07/24 10:08:10;;;;;;;2.73;2.10;;;22.50;70.30;;;;;;5022941;28;20423;-70
2023/07/24 10:10:37;;;;;;;2.90;2.43;;;22.50;70.30;;;;;;5007454;28;20429;-70
2023/07/24 10:13:04;;;;;;;3.00;2.60;;;22.50;71.50;;;;;;4999587;28;20562;-70
2023/07/24 10:15:33;;;;;;;4.10;2.60;;;22.60;71.30;;;;;;5002934;28;20428;-70
2023/07/24 10:18:04;;;;;;;2.85;2.50;;;22.80;71.90;;;;;;5022439;28;20426;-70
2023/07/24 10:20:36;;;;;;;2.80;2.50;;;23.10;68.90;;;;;;5007168;28;20837;-71
2023/07/24 10:23:03;;;;;;;2.70;2.28;;;23.40;67.30;;;;;;5004551;28;20534;-71
2023/07/24 10:25:32;;;;;;;2.78;2.30;;;23.70;66.70;;;;;;5006903;28;20663;-70
2023/07/24 10:28:05;;;;;;;2.72;2.30;;;24.10;64.10;;;;;;5010675;28;20432;-70
2023/07/24 10:30:34;;;;;;;2.42;2.10;;;24.30;64.50;;;;;;5022680;28;20423;-71
2023/07/24 10:33:08;;;;;;;2.42;2.00;;;24.50;62.20;;;;;;5009809;28;20763;-71
2023/07/24 10:35:43;;;;;;;3.40;2.30;;;24.60;61.20;;;;;;5008574;28;20453;-70
2023/07/24 10:38:10;;;;;;;3.10;2.10;;;24.70;62.40;;;;;;5004126;28;20691;-69
2023/07/24 10:40:37;;;;;;;3.35;2.20;;;24.80;61.40;;;;;;5009445;28;20435;-66
2023/07/24 10:43:08;;;;;;;2.35;2.10;;;25.00;61.50;;;;;;5012921;28;20429;-65
2023/07/24 10:45:47;;;;;;;2.22;2.03;;;25.00;60.50;;;;;;5004478;28;20440;-66
2023/07/24 10:48:14;;;;;;;2.30;2.10;;;24.90;60.00;;;;;;5001349;28;20484;-65
2023/07/24 10:50:41;;;;;;;2.60;2.20;;;24.70;60.60;;;;;;4996355;28;20552;-64
2023/07/24 10:53:09;;;;;;;6.78;4.00;;;24.50;60.70;;;;;;5003858;28;20450;-69
2023/07/24 10:55:36;;;;;;;4.63;2.50;;;24.20;60.80;;;;;;5002290;28;20438;-69
2023/07/24 10:58:03;;;;;;;2.58;2.33;;;23.90;62.10;;;;;;5007593;28;20445;-71
2023/07/24 11:00:30;;;;;;;2.60;2.20;;;23.70;64.10;;;;;;5003038;28;20432;-71
2023/07/24 11:02:58;;;;;;;2.92;2.58;;;23.40;64.30;;;;;;5002568;28;20439;-71
2023/07/24 11:05:25;;;;;;;3.20;2.57;;;23.20;66.70;;;;;;5000236;28;20440;-69
2023/07/24 11:07:51;;;;;;;3.00;2.35;;;23.20;70.00;;;;;;5009981;28;20421;-71
2023/07/24 11:10:19;;;;;;;2.60;2.38;;;23.10;72.30;;;;;;5008617;28;20448;-71
2023/07/24 11:12:46;;;;;;;3.38;2.50;;;23.10;70.80;;;;;;5007540;28;20868;-71
2023/07/24 11:15:13;;;;;;;2.88;2.30;;;23.30;70.50;;;;;;5016995;28;20463;-71
2023/07/24 11:17:42;;;;;;;2.85;2.65;;;23.40;68.50;;;;;;4998436;28;20507;-71
2023/07/24 11:20:12;;;;;;;3.00;2.33;;;23.50;68.50;;;;;;5001986;28;20542;-71
2023/07/24 11:22:40;;;;;;;2.75;2.30;;;24.00;66.20;;;;;;5010135;28;20550;-70
2023/07/24 11:25:08;;;;;;;2.92;2.50;;;24.10;63.90;;;;;;5013636;28;20439;-70
2023/07/24 11:27:40;;;;;;;4.10;2.50;;;24.20;62.60;;;;;;5013029;28;20436;-71
2023/07/24 11:30:08;;;;;;;2.40;2.20;;;24.30;62.90;;;;;;5005899;28;20784;-71
2023/07/24 11:32:35;;;;;;;2.70;2.40;;;24.40;63.30;;;;;;5019366;28;20449;-72
2023/07/24 11:35:02;;;;;;;2.40;2.10;;;24.80;59.50;;;;;;5008949;28;20438;-71
2023/07/24 11:37:31;;;;;;;2.20;2.00;;;25.00;57.10;;;;;;5012217;28;20458;-70
2023/07/24 11:39:59;;;;;;;3.10;2.30;;;25.10;57.70;;;;;;5002843;28;20440;-71
2023/07/24 11:42:27;;;;;;;3.30;1.95;;;25.10;56.80;;;;;;5009270;28;20422;-71
2023/07/24 11:44:54;;;;;;;12.60;3.20;;;25.00;56.90;;;;;;5010519;28;20501;-70
2023/07/24 11:47:21;;;;;;;8.50;2.13;;;23.90;94.30;;;;;;5017598;28;20428;-69
2023/07/24 11:49:58;;;;;;;15.05;2.95;;;20.00;99.90;;;;;;5004446;28;20428;-68
2023/07/24 11:52:25;;;;;;;6.57;3.50;;;18.30;99.90;;;;;;5012265;28;20439;-68
2023/07/24 11:55:00;;;;;;;7.33;4.20;;;18.00;99.90;;;;;;5012150;28;20413;-67
2023/07/24 11:57:28;;;;;;;6.05;4.20;;;18.00;99.90;;;;;;5004479;28;20436;-67
2023/07/24 11:59:57;;;;;;;5.90;3.85;;;18.10;99.90;;;;;;5014007;28;20446;-68
2023/07/24 12:02:26;;;;;;;33.88;5.50;;;18.00;99.90;;;;;;5004535;28;20448;-68
2023/07/24 12:04:57;;;;;;;16.85;3.30;;;17.90;99.90;;;;;;5014068;28;20438;-68
2023/07/24 12:07:29;;;;;;;4.82;2.92;;;17.40;99.90;;;;;;5012332;28;20582;-68
2023/07/24 12:09:57;;;;;;;6.60;3.80;;;17.20;99.90;;;;;;5003203;28;20448;-68
2023/07/24 12:12:24;;;;;;;9.85;4.85;;;17.50;99.90;;;;;;5005390;28;20439;-68
2023/07/24 12:14:51;;;;;;;5.65;3.53;;;18.00;99.90;;;;;;5009219;28;20414;-67
2023/07/24 12:17:19;;;;;;;5.70;3.65;;;18.60;99.90;;;;;;5009375;28;20462;-67
2023/07/24 12:19:46;;;;;;;5.45;3.28;;;19.20;99.90;;;;;;5011632;28;20496;-67
2023/07/24 12:22:13;;;;;;;3.40;2.70;;;19.50;99.90;;;;;;5001269;28;20512;-67
2023/07/24 12:24:40;;;;;;;5.32;3.35;;;19.10;99.90;;;;;;5005714;28;20463;-66
2023/07/24 12:27:08;;;;;;;4.30;3.60;;;18.90;99.90;;;;;;5010765;28;20496;-67
2023/07/24 12:29:35;;;;;;;5.57;4.10;;;18.70;99.90;;;;;;5004536;28;20439;-67
2023/07/24 12:32:02;;;;;;;7.78;5.47;;;18.70;99.90;;;;;;5009372;28;20446;-69
2023/07/24 12:34:29;;;;;;;5.75;4.43;;;18.60;99.90;;;;;;5007996;28;20695;-68
2023/07/24 12:36:55;;;;;;;4.45;3.65;;;18.80;99.90;;;;;;5007471;28;20412;-68
2023/07/24 12:39:22;;;;;;;4.23;3.80;;;18.90;99.90;;;;;;5017776;28;20514;-66
2023/07/24 12:41:49;;;;;;;4.72;4.28;;;18.90;99.90;;;;;;5002860;28;20474;-69
2023/07/24 12:44:17;;;;;;;4.85;4.10;;;18.80;99.90;;;;;;5003071;28;20456;-68
2023/07/24 12:46:44;;;;;;;7.23;5.47;;;18.80;99.90;;;;;;5006323;28;20432;-66